Terminal Aerodrome Forecast
Issued by NWS Cleveland, OH

Home | Current Version | Previous Version | Graphics & Text | Print | Product List | Glossary On
Versions: 1 2 3 4 5 6 7 8 9 10 11 12 13 14 15 16 17 18 19 20
000
FTUS41 KCLE 281300 AAB
TAFTOL
TAF AMD
KTOL 281358Z 2814/2912 00000KT 1/4SM FG VV001
     FM281430 00000KT 1 1/2SM BR BKN003
     FM281530 VRB04KT P6SM BKN250
     FM290600 00000KT 4SM BR SCT200
     FM291000 00000KT 2SM BR SCT200=

USA.gov is the U.S. government's official web portal to all federal, state and local government web resources and services.